createdAt,value
2022-09-28T00:00:19.368Z,11.90
2022-09-28T00:02:46.122Z,11.80
2022-09-28T00:05:12.913Z,12.68
2022-09-28T00:07:40.299Z,11.50
2022-09-28T00:10:07.541Z,11.15
2022-09-28T00:12:35.623Z,14.27
2022-09-28T00:15:06.631Z,13.10
2022-09-28T00:17:34.094Z,14.18
2022-09-28T00:20:01.515Z,16.67
2022-09-28T00:22:28.834Z,17.08
2022-09-28T00:24:55.553Z,18.45
2022-09-28T00:27:22.315Z,12.25
2022-09-28T00:29:51.006Z,15.93
2022-09-28T00:32:17.744Z,16.10
2022-09-28T00:34:44.976Z,15.77
2022-09-28T00:37:13.743Z,17.05
2022-09-28T00:39:40.843Z,14.60
2022-09-28T00:42:13.011Z,18.63
2022-09-28T00:44:43.569Z,17.30
2022-09-28T00:47:31.092Z,17.05
2022-09-28T00:50:02.825Z,16.90
2022-09-28T00:52:38.768Z,15.10
2022-09-28T00:55:09.650Z,15.80
2022-09-28T00:57:37.743Z,12.88
2022-09-28T01:00:05.552Z,15.83
2022-09-28T01:02:34.345Z,11.00
2022-09-28T01:05:03.254Z,14.90
2022-09-28T01:07:31.991Z,11.25
2022-09-28T01:09:59.516Z,8.18
2022-09-28T01:12:26.288Z,12.07
2022-09-28T01:14:53.060Z,12.95
2022-09-28T01:17:26.469Z,11.15
2022-09-28T01:20:38.170Z,8.10
2022-09-28T01:23:42.923Z,7.65
2022-09-28T01:26:42.431Z,7.60
2022-09-28T01:29:17.573Z,8.00
2022-09-28T01:31:49.045Z,9.27
2022-09-28T01:34:23.644Z,10.85
2022-09-28T01:36:55.065Z,12.18
2022-09-28T01:39:28.757Z,12.63
2022-09-28T01:42:01.388Z,11.10
2022-09-28T01:44:31.775Z,9.43
2022-09-28T01:47:01.011Z,12.60
2022-09-28T01:49:33.905Z,15.52
2022-09-28T01:52:05.947Z,12.65
2022-09-28T01:54:38.803Z,13.52
2022-09-28T01:57:11.243Z,8.95
2022-09-28T01:59:43.379Z,13.20
2022-09-28T02:02:14.158Z,10.18
2022-09-28T02:04:45.463Z,11.18
2022-09-28T02:07:18.024Z,14.60
2022-09-28T02:09:49.302Z,14.23
2022-09-28T02:12:23.339Z,16.80
2022-09-28T02:14:55.607Z,15.40
2022-09-28T02:17:22.415Z,12.65
2022-09-28T02:19:49.175Z,12.02
2022-09-28T02:22:24.662Z,8.98
2022-09-28T02:24:56.180Z,14.02
2022-09-28T02:27:35.915Z,12.07
2022-09-28T02:30:04.766Z,14.10
2022-09-28T02:32:35.198Z,10.13
2022-09-28T02:35:02.034Z,10.65
2022-09-28T02:37:28.884Z,15.10
2022-09-28T02:39:56.206Z,17.65
2022-09-28T02:42:28.406Z,11.00
2022-09-28T02:45:07.962Z,11.45
2022-09-28T02:47:49.795Z,14.77
2022-09-28T02:50:24.487Z,14.80
2022-09-28T02:53:17.214Z,7.88
2022-09-28T02:55:59.541Z,11.63
2022-09-28T02:58:37.583Z,11.70
2022-09-28T03:01:13.973Z,11.15
2022-09-28T03:03:46.872Z,13.93
2022-09-28T03:06:18.607Z,9.65
2022-09-28T03:08:51.928Z,10.40
2022-09-28T03:11:22.465Z,10.20
2022-09-28T03:13:52.167Z,10.77
2022-09-28T03:18:47.603Z,10.48
2022-09-28T03:21:15.619Z,10.85
2022-09-28T03:23:42.547Z,8.98
2022-09-28T03:26:11.483Z,8.40
2022-09-28T03:28:39.134Z,8.38
2022-09-28T03:31:07.341Z,9.38
2022-09-28T03:33:34.157Z,9.25
2022-09-28T03:36:01.755Z,9.75
2022-09-28T03:38:28.616Z,7.78
2022-09-28T03:40:56.658Z,7.65
2022-09-28T03:43:25.242Z,5.78
2022-09-28T03:45:55.513Z,7.05
2022-09-28T03:48:28.711Z,8.02
2022-09-28T03:51:00.836Z,4.60
2022-09-28T03:53:28.119Z,7.47
2022-09-28T03:55:55.328Z,6.05
2022-09-28T03:58:23.286Z,6.47
2022-09-28T04:00:50.272Z,7.03
2022-09-28T04:03:17.160Z,4.78
2022-09-28T04:05:52.973Z,5.85
2022-09-28T04:08:20.148Z,4.70
2022-09-28T04:10:47.511Z,6.03
2022-09-28T04:13:14.715Z,5.28
2022-09-28T04:15:41.558Z,7.50
2022-09-28T04:18:10.322Z,8.77
2022-09-28T04:20:37.298Z,5.60
2022-09-28T04:23:20.243Z,4.80
2022-09-28T04:25:51.731Z,4.47
2022-09-28T04:28:19.087Z,5.75
2022-09-28T04:30:46.655Z,4.43
2022-09-28T04:33:13.391Z,4.88
2022-09-28T04:35:41.043Z,7.93
2022-09-28T04:38:09.604Z,3.83
2022-09-28T04:40:36.424Z,5.35
2022-09-28T04:43:04.109Z,5.97
2022-09-28T04:45:30.833Z,5.20
2022-09-28T04:47:57.574Z,3.80
2022-09-28T04:50:24.925Z,7.30
2022-09-28T04:52:51.684Z,5.30
2022-09-28T04:55:19.750Z,8.73
2022-09-28T04:57:47.059Z,5.07
2022-09-28T05:00:14.657Z,4.75
2022-09-28T05:02:41.511Z,5.22
2022-09-28T05:05:09.147Z,7.50
2022-09-28T05:07:35.871Z,8.20
2022-09-28T05:10:02.649Z,8.50
2022-09-28T05:12:31.319Z,7.18
2022-09-28T05:14:58.058Z,5.53
2022-09-28T05:17:25.084Z,8.98
2022-09-28T05:19:52.567Z,5.65
2022-09-28T05:22:19.271Z,5.25
2022-09-28T05:24:45.997Z,6.70
2022-09-28T05:27:13.350Z,7.28
2022-09-28T05:29:41.515Z,6.30
2022-09-28T05:32:08.308Z,9.60
2022-09-28T05:34:35.679Z,7.05
2022-09-28T05:37:02.404Z,6.18
2022-09-28T05:39:29.123Z,7.55
2022-09-28T05:41:56.531Z,5.78
2022-09-28T05:44:23.503Z,6.07
2022-09-28T05:46:53.416Z,8.23
2022-09-28T05:49:20.752Z,7.80
2022-09-28T05:51:47.842Z,5.13
2022-09-28T05:54:14.728Z,9.18
2022-09-28T05:56:42.123Z,10.25
2022-09-28T05:59:08.865Z,8.25
2022-09-28T06:01:35.633Z,8.70
2022-09-28T06:04:04.307Z,10.43
2022-09-28T06:06:31.039Z,7.43
2022-09-28T06:08:57.934Z,10.93
2022-09-28T06:11:26.451Z,6.63
2022-09-28T06:13:53.915Z,7.00
2022-09-28T06:16:20.908Z,10.07
2022-09-28T06:18:48.412Z,6.38
2022-09-28T06:21:16.470Z,7.90
2022-09-28T06:23:48.225Z,10.70
2022-09-28T06:26:16.950Z,9.27
2022-09-28T06:28:43.867Z,7.60
2022-09-28T06:31:10.819Z,8.77
2022-09-28T06:33:38.299Z,7.93
2022-09-28T06:36:05.472Z,8.05
2022-09-28T06:38:33.585Z,6.40
2022-09-28T06:41:04.001Z,7.97
2022-09-28T06:43:34.229Z,10.50
2022-09-28T06:46:02.490Z,9.98
2022-09-28T06:48:38.414Z,12.43
2022-09-28T06:51:05.956Z,9.65
2022-09-28T06:53:34.063Z,12.52
2022-09-28T06:56:01.212Z,16.27
2022-09-28T06:58:28.693Z,10.57
2022-09-28T07:00:57.593Z,8.20
2022-09-28T07:03:24.490Z,8.77
2022-09-28T07:05:53.608Z,13.15
2022-09-28T07:08:22.264Z,9.80
2022-09-28T07:10:51.332Z,6.38
2022-09-28T07:13:44.617Z,8.60
2022-09-28T07:16:05.934Z,8.60
2022-09-28T07:18:33.376Z,8.00
2022-09-28T07:21:00.358Z,7.05
2022-09-28T07:23:27.220Z,9.10
2022-09-28T07:25:56.210Z,7.13
2022-09-28T07:28:24.136Z,7.68
2022-09-28T07:30:50.976Z,6.45
2022-09-28T07:33:21.362Z,3.03
2022-09-28T07:35:52.047Z,3.58
2022-09-28T07:38:19.999Z,2.72
2022-09-28T07:40:48.425Z,5.47
2022-09-28T07:43:17.157Z,3.85
2022-09-28T07:50:38.902Z,3.33
2022-09-28T07:53:06.248Z,4.07
2022-09-28T07:55:32.968Z,4.85
2022-09-28T07:57:59.967Z,1.65
2022-09-28T08:00:33.321Z,4.18
2022-09-28T08:03:01.662Z,4.90
2022-09-28T08:05:29.461Z,5.80
2022-09-28T08:07:56.189Z,6.18
2022-09-28T08:10:25.219Z,4.93
2022-09-28T08:12:54.462Z,3.78
2022-09-28T08:15:21.383Z,4.00
2022-09-28T08:17:50.024Z,3.47
2022-09-28T08:20:17.366Z,3.97
2022-09-28T08:22:44.093Z,1.95
2022-09-28T08:25:11.048Z,3.78
2022-09-28T08:27:38.467Z,6.28
2022-09-28T08:30:06.465Z,4.45
2022-09-28T08:32:33.203Z,2.70
2022-09-28T08:35:01.899Z,2.53
2022-09-28T08:37:28.648Z,3.20
2022-09-28T08:39:58.112Z,1.55
2022-09-28T08:42:33.419Z,3.35
2022-09-28T08:45:07.469Z,1.35
2022-09-28T08:47:47.680Z,2.90
2022-09-28T08:50:20.373Z,2.13
2022-09-28T08:52:53.100Z,2.03
2022-09-28T08:55:28.534Z,1.60
2022-09-28T08:57:59.714Z,1.77
2022-09-28T09:00:33.588Z,1.90
2022-09-28T09:03:05.291Z,1.92
2022-09-28T09:05:45.894Z,0.95
2022-09-28T09:08:33.671Z,1.65
2022-09-28T09:11:07.912Z,3.70
2022-09-28T09:14:02.748Z,3.58
2022-09-28T09:16:37.376Z,2.55
2022-09-28T09:19:14.579Z,2.28
2022-09-28T09:21:47.759Z,1.50
2022-09-28T09:24:23.779Z,1.67
2022-09-28T09:26:57.763Z,2.63
2022-09-28T09:29:32.557Z,2.83
2022-09-28T09:32:16.414Z,1.83
2022-09-28T09:35:06.425Z,2.00
2022-09-28T09:37:58.849Z,0.90
2022-09-28T09:40:46.478Z,2.00
2022-09-28T09:43:35.900Z,1.73
2022-09-28T09:46:15.492Z,1.50
2022-09-28T09:48:49.425Z,0.80
2022-09-28T09:51:24.103Z,1.02
2022-09-28T09:53:57.210Z,0.60
2022-09-28T09:56:31.271Z,2.25
2022-09-28T09:59:05.244Z,1.95
2022-09-28T10:01:36.625Z,0.30
2022-09-28T10:04:06.150Z,2.03
2022-09-28T10:06:36.208Z,1.20
2022-09-28T10:09:06.298Z,2.10
2022-09-28T10:11:35.788Z,2.15
2022-09-28T10:14:02.815Z,0.40
2022-09-28T10:16:31.946Z,1.50
2022-09-28T10:18:59.900Z,2.45
2022-09-28T10:21:27.179Z,1.67
2022-09-28T10:23:57.226Z,1.73
2022-09-28T10:26:30.111Z,1.38
2022-09-28T10:29:01.015Z,1.38
2022-09-28T10:31:40.206Z,1.58
2022-09-28T10:34:08.099Z,1.02
2022-09-28T10:36:46.687Z,1.67
2022-09-28T10:39:29.259Z,0.88
2022-09-28T10:42:00.126Z,1.90
2022-09-28T10:44:27.310Z,0.73
2022-09-28T10:46:59.284Z,1.75
2022-09-28T10:49:27.253Z,1.05
2022-09-28T10:51:55.159Z,3.35
2022-09-28T10:54:23.420Z,0.87
2022-09-28T10:59:37.177Z,0.93
2022-09-28T11:02:18.461Z,2.95
2022-09-28T11:04:51.683Z,0.63
2022-09-28T11:07:20.701Z,1.70
2022-09-28T11:09:48.960Z,0.60
2022-09-28T11:12:19.349Z,0.60
2022-09-28T11:14:49.627Z,0.60
2022-09-28T11:17:23.727Z,0.30
2022-09-28T11:19:51.115Z,0.52
2022-09-28T11:22:23.705Z,1.05
2022-09-28T11:24:51.018Z,0.40
2022-09-28T11:27:22.999Z,1.20
2022-09-28T11:29:57.899Z,2.08
2022-09-28T11:32:28.457Z,0.80
2022-09-28T11:35:00.185Z,1.55
2022-09-28T11:37:39.002Z,0.28
2022-09-28T11:40:16.663Z,0.75
2022-09-28T11:42:52.796Z,0.52
2022-09-28T11:45:39.950Z,0.93
2022-09-28T11:48:09.528Z,1.17
2022-09-28T11:50:46.529Z,0.68
2022-09-28T11:53:20.212Z,0.50
2022-09-28T11:55:53.726Z,1.08
2022-09-28T11:58:26.638Z,0.57
2022-09-28T12:01:00.961Z,1.60
2022-09-28T12:03:35.657Z,0.80
2022-09-28T12:06:06.475Z,2.47
2022-09-28T12:08:36.666Z,1.02
2022-09-28T12:11:10.374Z,0.68
2022-09-28T12:13:40.491Z,0.70
2022-09-28T12:16:38.930Z,0.70
2022-09-28T12:19:06.340Z,0.95
2022-09-28T12:21:38.803Z,1.17
2022-09-28T12:24:15.050Z,1.55
2022-09-28T12:26:47.143Z,1.98
2022-09-28T12:29:17.667Z,1.00
2022-09-28T12:31:57.294Z,0.60
2022-09-28T12:34:24.111Z,1.70
2022-09-28T12:37:06.810Z,1.25
2022-09-28T12:39:57.622Z,1.45
2022-09-28T12:42:45.985Z,0.68
2022-09-28T12:45:27.318Z,0.35
2022-09-28T12:48:21.356Z,0.45
2022-09-28T12:50:57.506Z,0.85
2022-09-28T12:53:39.432Z,1.00
2022-09-28T12:56:15.685Z,1.10
2022-09-28T12:59:01.864Z,1.13
2022-09-28T13:01:44.510Z,0.52
2022-09-28T13:04:38.863Z,0.47
2022-09-28T13:07:10.696Z,0.80
2022-09-28T13:09:46.067Z,3.65
2022-09-28T13:12:25.994Z,2.33
2022-09-28T13:15:13.680Z,3.38
2022-09-28T13:17:48.687Z,3.03
2022-09-28T13:20:29.447Z,1.58
2022-09-28T13:23:04.568Z,0.60
2022-09-28T13:25:34.361Z,1.60
2022-09-28T13:28:03.505Z,0.98
2022-09-28T13:30:32.252Z,3.53
2022-09-28T13:33:02.521Z,2.72
2022-09-28T13:35:31.856Z,3.80
2022-09-28T13:38:36.903Z,2.40
2022-09-28T13:41:17.649Z,1.65
2022-09-28T13:44:06.538Z,3.05
2022-09-28T13:46:41.133Z,2.03
2022-09-28T13:49:16.706Z,2.47
2022-09-28T13:52:01.134Z,2.88
2022-09-28T13:54:41.919Z,2.95
2022-09-28T13:57:20.082Z,1.02
2022-09-28T13:59:59.060Z,2.88
2022-09-28T14:02:35.206Z,2.05
2022-09-28T14:05:04.844Z,4.38
2022-09-28T14:10:24.233Z,1.25
2022-09-28T14:12:51.695Z,2.22
2022-09-28T14:15:43.524Z,1.05
2022-09-28T14:18:24.599Z,1.27
2022-09-28T14:21:01.908Z,3.33
2022-09-28T14:23:45.578Z,0.80
2022-09-28T14:26:39.662Z,2.30
2022-09-28T14:29:19.194Z,2.45
2022-09-28T14:34:31.532Z,1.00
2022-09-28T14:36:59.100Z,2.67
2022-09-28T14:39:30.004Z,2.08
2022-09-28T14:42:08.895Z,1.67
2022-09-28T14:45:09.653Z,2.80
2022-09-28T14:47:42.125Z,3.33
2022-09-28T14:50:23.558Z,4.80
2022-09-28T14:52:53.204Z,2.65
2022-09-28T14:55:27.275Z,2.78
2022-09-28T14:57:58.772Z,4.55
2022-09-28T15:00:28.563Z,6.05
2022-09-28T15:03:12.280Z,1.27
2022-09-28T15:05:44.000Z,1.20
2022-09-28T15:08:11.668Z,1.73
2022-09-28T15:10:43.121Z,0.90
2022-09-28T15:13:23.828Z,2.13
2022-09-28T15:15:58.475Z,1.60
2022-09-28T15:18:52.099Z,1.52
2022-09-28T15:21:19.169Z,1.63
2022-09-28T15:23:46.773Z,0.70
2022-09-28T15:26:23.611Z,2.90
2022-09-28T15:28:52.285Z,0.82
2022-09-28T15:31:22.898Z,2.00
2022-09-28T15:33:50.973Z,3.10
2022-09-28T15:36:21.324Z,1.25
2022-09-28T15:38:55.011Z,1.70
2022-09-28T15:41:23.206Z,1.65
2022-09-28T15:44:06.358Z,2.28
2022-09-28T15:46:34.684Z,3.28
2022-09-28T15:49:02.272Z,2.83
2022-09-28T15:51:44.711Z,4.00
2022-09-28T15:54:15.364Z,4.15
2022-09-28T15:56:59.338Z,2.85
2022-09-28T15:59:32.753Z,2.80
2022-09-28T16:02:10.556Z,1.55
2022-09-28T16:04:42.840Z,5.57
2022-09-28T16:07:30.459Z,3.30
2022-09-28T16:10:21.186Z,2.08
2022-09-28T16:12:51.088Z,2.55
2022-09-28T16:15:23.285Z,4.10
2022-09-28T16:17:52.261Z,1.30
2022-09-28T16:20:27.692Z,4.32
2022-09-28T16:22:59.179Z,4.18
2022-09-28T16:25:27.148Z,2.85
2022-09-28T16:27:56.283Z,1.92
2022-09-28T16:30:26.276Z,1.95
2022-09-28T16:32:58.451Z,2.28
2022-09-28T16:35:28.655Z,3.45
2022-09-28T16:38:02.132Z,2.25
2022-09-28T16:40:30.685Z,1.63
2022-09-28T16:43:00.931Z,1.48
2022-09-28T16:45:29.143Z,1.75
2022-09-28T16:47:56.426Z,2.25
2022-09-28T16:50:25.093Z,1.45
2022-09-28T16:53:02.727Z,1.77
2022-09-28T16:55:40.014Z,1.42
2022-09-28T16:58:07.697Z,0.95
2022-09-28T17:00:36.460Z,2.00
2022-09-28T17:03:12.856Z,2.08
2022-09-28T17:05:40.269Z,2.83
2022-09-28T17:08:10.790Z,2.58
2022-09-28T17:11:02.578Z,2.40
2022-09-28T17:13:31.584Z,2.83
2022-09-28T17:16:00.215Z,2.25
2022-09-28T17:18:27.591Z,3.70
2022-09-28T17:20:56.832Z,3.92
2022-09-28T17:23:23.621Z,2.00
2022-09-28T17:25:50.431Z,8.10
2022-09-28T17:28:21.242Z,7.72
2022-09-28T17:30:48.358Z,7.75
2022-09-28T17:33:16.474Z,4.30
2022-09-28T17:35:44.775Z,2.42
2022-09-28T17:38:12.185Z,2.90
2022-09-28T17:40:39.550Z,3.13
2022-09-28T17:43:07.370Z,2.38
2022-09-28T17:45:36.258Z,4.25
2022-09-28T17:48:03.054Z,3.05
2022-09-28T17:50:33.815Z,3.05
2022-09-28T17:53:01.141Z,2.90
2022-09-28T17:55:29.015Z,4.40
2022-09-28T17:57:56.544Z,3.63
2022-09-28T18:00:23.738Z,4.25
2022-09-28T18:02:51.193Z,4.05
2022-09-28T18:05:18.583Z,3.47
2022-09-28T18:07:47.865Z,4.28
2022-09-28T18:10:16.981Z,4.25
2022-09-28T18:12:44.364Z,7.70
2022-09-28T18:15:12.122Z,6.47
2022-09-28T18:17:39.717Z,7.57
2022-09-28T18:20:10.135Z,7.78
2022-09-28T18:22:36.961Z,7.97
2022-09-28T18:25:06.223Z,10.13
2022-09-28T18:27:33.608Z,11.18
2022-09-28T18:30:00.403Z,12.07
2022-09-28T18:32:27.386Z,11.73
2022-09-28T18:34:54.992Z,12.85
2022-09-28T18:37:21.735Z,12.45
2022-09-28T18:39:48.438Z,7.88
2022-09-28T18:42:18.595Z,10.70
2022-09-28T18:44:45.341Z,11.50
2022-09-28T18:47:12.975Z,12.25
2022-09-28T18:49:44.677Z,9.50
2022-09-28T18:52:13.259Z,7.50
2022-09-28T18:54:40.597Z,11.43
2022-09-28T18:57:07.376Z,8.32
2022-09-28T18:59:35.545Z,11.35
2022-09-28T19:02:03.051Z,7.68
2022-09-28T19:04:29.905Z,8.85
2022-09-28T19:06:56.707Z,10.65
2022-09-28T19:09:24.121Z,10.07
2022-09-28T19:11:51.023Z,7.28
2022-09-28T19:14:17.855Z,6.60
2022-09-28T19:16:47.832Z,7.25
2022-09-28T19:19:16.557Z,19.63
2022-09-28T19:24:13.629Z,12.57
2022-09-28T19:26:40.923Z,13.57
2022-09-28T19:29:10.338Z,10.40
2022-09-28T19:31:38.100Z,15.63
2022-09-28T19:34:08.205Z,22.55
2022-09-28T19:36:35.917Z,26.95
2022-09-28T19:39:03.914Z,19.45
2022-09-28T19:41:39.011Z,13.40
2022-09-28T19:44:10.393Z,16.05
2022-09-28T19:49:08.103Z,7.70
2022-09-28T19:51:37.151Z,7.50
2022-09-28T19:54:05.404Z,8.70
2022-09-28T19:56:32.291Z,9.63
2022-09-28T19:59:00.564Z,11.32
2022-09-28T20:01:28.098Z,11.82
2022-09-28T20:03:55.208Z,16.30
2022-09-28T20:06:24.592Z,14.65
2022-09-28T20:08:51.935Z,11.18
2022-09-28T20:11:19.719Z,7.47
2022-09-28T20:13:49.560Z,7.72
2022-09-28T20:16:18.386Z,10.00
2022-09-28T20:18:46.333Z,8.52
2022-09-28T20:21:18.294Z,7.38
2022-09-28T20:23:47.393Z,9.63
2022-09-28T20:26:15.411Z,8.25
2022-09-28T20:28:42.616Z,9.38
2022-09-28T20:31:12.277Z,9.63
2022-09-28T20:33:40.164Z,10.60
2022-09-28T20:36:08.634Z,11.18
2022-09-28T20:38:36.036Z,9.48
2022-09-28T20:41:05.113Z,10.15
2022-09-28T20:43:31.831Z,11.15
2022-09-28T20:45:58.873Z,8.32
2022-09-28T20:48:26.598Z,7.63
2022-09-28T20:50:58.423Z,8.13
2022-09-28T20:53:25.403Z,8.50
2022-09-28T20:55:58.124Z,9.80
2022-09-28T20:58:26.448Z,7.60
2022-09-28T21:01:06.404Z,8.93
2022-09-28T21:03:34.858Z,8.73
2022-09-28T21:06:02.437Z,9.82
2022-09-28T21:08:29.426Z,10.45
2022-09-28T21:10:56.363Z,9.93
2022-09-28T21:13:27.000Z,15.55
2022-09-28T21:15:53.882Z,10.50
2022-09-28T21:18:22.193Z,9.10
2022-09-28T21:20:51.272Z,7.30
2022-09-28T21:23:22.705Z,10.52
2022-09-28T21:26:01.607Z,8.15
2022-09-28T21:28:29.812Z,11.05
2022-09-28T21:30:57.885Z,6.72
2022-09-28T21:33:24.695Z,10.55
2022-09-28T21:35:51.552Z,6.65
2022-09-28T21:38:19.138Z,8.88
2022-09-28T21:40:45.904Z,8.02
2022-09-28T21:43:12.922Z,7.38
2022-09-28T21:45:41.592Z,7.28
2022-09-28T21:48:08.324Z,7.43
2022-09-28T21:50:35.064Z,7.80
2022-09-28T21:53:02.380Z,7.32
2022-09-28T21:55:29.120Z,7.85
2022-09-28T21:57:55.878Z,7.10
2022-09-28T22:00:23.521Z,6.82
2022-09-28T22:02:51.626Z,7.40
2022-09-28T22:05:18.765Z,7.00
2022-09-28T22:07:46.135Z,7.65
2022-09-28T22:10:17.156Z,7.70
2022-09-28T22:12:45.464Z,6.53
2022-09-28T22:15:12.809Z,5.68
2022-09-28T22:17:39.559Z,6.85
2022-09-28T22:20:08.440Z,7.55
2022-09-28T22:22:35.777Z,6.13
2022-09-28T22:25:02.539Z,6.20
2022-09-28T22:27:30.323Z,5.68
2022-09-28T22:29:57.820Z,4.68
2022-09-28T22:32:24.580Z,6.32
2022-09-28T22:34:51.495Z,5.95
2022-09-28T22:37:20.192Z,5.80
2022-09-28T22:39:46.950Z,4.33
2022-09-28T22:42:13.897Z,6.22
2022-09-28T22:44:41.255Z,6.55
2022-09-28T22:47:08.007Z,5.97
2022-09-28T22:49:34.717Z,6.88
2022-09-28T22:52:02.079Z,6.38
2022-09-28T22:54:30.132Z,7.57
2022-09-28T22:56:56.902Z,9.00
2022-09-28T22:59:24.340Z,9.48
2022-09-28T23:01:51.103Z,6.88
2022-09-28T23:04:17.987Z,6.45
2022-09-28T23:06:45.312Z,9.32
2022-09-28T23:09:12.067Z,6.95
2022-09-28T23:11:40.241Z,7.25
2022-09-28T23:14:11.014Z,7.30
2022-09-28T23:16:38.868Z,8.27
2022-09-28T23:19:05.984Z,6.93
2022-09-28T23:21:33.307Z,6.80
2022-09-28T23:24:00.757Z,6.55
2022-09-28T23:26:29.369Z,6.40
2022-09-28T23:28:59.083Z,6.72
2022-09-28T23:33:57.119Z,7.15
2022-09-28T23:36:24.582Z,5.40
2022-09-28T23:38:51.314Z,6.68
2022-09-28T23:41:18.051Z,6.20
2022-09-28T23:43:45.417Z,6.63
2022-09-28T23:46:17.230Z,8.88
2022-09-28T23:48:47.785Z,7.03
2022-09-28T23:51:14.499Z,6.90
2022-09-28T23:53:41.244Z,5.50
2022-09-28T23:56:08.670Z,6.22
2022-09-28T23:58:35.395Z,7.00
